Portada
METAR-TAF:

METAR-TAF

Aeroports :

Georgetown, Illa de l'Ascensió

latitud: 07-58S, longitud: 014-24W, altitud: 86 m

METAR: manca

Hora: 04:57 (04:57 UTC)

Pronòstic

L'informe es va fer fa 18 hores i 27 minuts, a les 10:30 UTC
Pronòstic vàlid del 24 a les 12 UTC al 25 a les 06 UTC
Vent 14 kt del Sud/Sud-Est
Visibilitat 10 km o més
Escasses núvols a una alçada de 1800 ft
Probabilitat 30% :
Temporalment
l' 24 a les 18 UTC al 25 a les 06 UTC
Visibilitat: 7000 m
Núvols disperses a una alçada de 1800 ft
xàfecs de pluja

TAF: FHAW 241030Z 2412/2506 15014KT 9999 FEW018 PROB30 TEMPO 2418/2506 7000 -SHRA SCT018

Observacions i pronòstics meteorològics de més de 4000 aeroports (METAR i TAF).

Les estacions disponibles són els punts grocs i vermells al mapa.

Posi el ratolí al punt desitjat per veure el nom de l'estació.

Feu clic per veure les observacions i els pronòstics meteorològics.

Per canviar el mapa: feu clic els botons verds amb una creu de color negre per apropar; al botó verd amb un guió per allunyar la imatge; o en les fletxes verdes per a mapes adjacents.


METAR-TAF: